Hanna B — LM4068 — position and weather

sailwx.info

Track history (hours):
 
Tides and Currents Weather Stations Pressure Air Temp Water Temp Dewpoint Dewpoint Depression Visibility Wind Speed Wind Dir Waves Ship Positions

Hanna B

Last reported at 2017-Nov-16 09:06 UTC. Time now 2017-Nov-24 16:53 UTC.
Position N 70°27' E 031°22'.
Warning: this ship's position is 8 days out of date.

Length 14 m.

Type: Fishing. MMSI: 257593500.

Date/timePositionNaut miles runAvg speedWind from/ knotsBaromVisibWave heightAir tempDewpointWater temp
2017-Nov-16 09:06N 70°27' E 031°22'0 1.1
2017-Nov-16 09:00N 70°27' E 031°22'0 1.0
2017-Nov-16 08:30N 70°27' E 031°21'0 0.6
2017-Nov-16 07:59N 70°26' E 031°20'0 1.0
2017-Nov-16 07:30N 70°26' E 031°22'0 1.0
2017-Nov-16 07:00N 70°26' E 031°22'1 1.1
2017-Nov-16 06:29N 70°26' E 031°24'1 1.1
2017-Nov-16 06:00N 70°26' E 031°25'3 5.0
2017-Nov-16 05:30N 70°25' E 031°18'4 7.9
2017-Nov-16 04:59N 70°24' E 031°07'1 2.3
2017-Nov-16 04:26N 70°22' E 031°07'0 0.0
2017-Nov-16 03:56N 70°22' E 031°07'0 0.0
2017-Nov-16 03:26N 70°22' E 031°07'0 0.0
2017-Nov-16 02:56N 70°22' E 031°07'0 0.0
2017-Nov-16 02:26N 70°22' E 031°07'0 0.0
2017-Nov-16 01:56N 70°22' E 031°07'0 0.0
2017-Nov-16 01:26N 70°22' E 031°07'0 0.0
2017-Nov-16 00:56N 70°22' E 031°07'0 0.0
2017-Nov-16 00:26N 70°22' E 031°07'0 0.0
2017-Nov-15 23:56N 70°22' E 031°07'0 0.0
2017-Nov-15 23:26N 70°22' E 031°07'0 0.0
2017-Nov-15 22:56N 70°22' E 031°07'0 0.0
2017-Nov-15 22:26N 70°22' E 031°07'0 0.0
2017-Nov-15 21:56N 70°22' E 031°07'0 0.0
2017-Nov-15 21:26N 70°22' E 031°07'0 0.0
2017-Nov-15 20:56N 70°22' E 031°07'0 0.0
2017-Nov-15 20:26N 70°22' E 031°07'0 0.0
2017-Nov-15 19:56N 70°22' E 031°07'0 0.0
2017-Nov-15 19:26N 70°22' E 031°07'0 0.0
2017-Nov-15 18:56N 70°22' E 031°07'0 0.0
2017-Nov-15 18:26N 70°22' E 031°07'0 0.0
2017-Nov-15 17:56N 70°22' E 031°07'0 0.0
2017-Nov-15 17:26N 70°22' E 031°07'0 0.0
2017-Nov-15 16:56N 70°22' E 031°07'0 0.0
2017-Nov-15 16:26N 70°22' E 031°07'0 0.0
2017-Nov-15 15:56N 70°22' E 031°07'0 0.0
2017-Nov-15 15:26N 70°22' E 031°07'0 0.0
2017-Nov-15 14:56N 70°22' E 031°07'0 0.0
2017-Nov-15 14:26N 70°22' E 031°07'0 0.0
2017-Nov-15 13:56N 70°22' E 031°07'0 0.0
2017-Nov-15 13:26N 70°22' E 031°07'0 0.0
2017-Nov-15 12:56N 70°22' E 031°07'0 0.0
2017-Nov-15 12:26N 70°22' E 031°07'0 0.0
2017-Nov-15 11:55N 70°22' E 031°07'0 0.4
2017-Nov-15 11:30N 70°23' E 031°07'3 6.4
2017-Nov-15 11:00N 70°25' E 031°13'4 8.4
2017-Nov-15 10:30N 70°27' E 031°23'2 4.0
2017-Nov-15 10:00N 70°29' E 031°20'3 5.1
2017-Nov-15 09:29N 70°26' E 031°20'2 3.3
2017-Nov-15 08:59N 70°26' E 031°25'1 1.5
2017-Nov-15 08:30N 70°26' E 031°23'1 1.1
2017-Nov-15 08:00N 70°26' E 031°23'1 1.2
2017-Nov-15 07:30N 70°27' E 031°23'1 1.2
2017-Nov-15 07:00N 70°27' E 031°22'1 1.3
2017-Nov-15 06:29N 70°28' E 031°22'1 1.2
2017-Nov-15 06:00N 70°29' E 031°21'3 5.5
2017-Nov-15 05:29N 70°26' E 031°16'4 8.3
2017-Nov-15 04:59N 70°24' E 031°07'1 2.3
2017-Nov-15 04:29N 70°22' E 031°07'0 0.0
2017-Nov-15 03:59N 70°22' E 031°07'0 0.0
2017-Nov-15 03:29N 70°22' E 031°07'0 0.0
2017-Nov-15 02:59N 70°22' E 031°07'0 0.0
2017-Nov-15 02:29N 70°22' E 031°07'0 0.0
2017-Nov-15 01:59N 70°22' E 031°07'0 0.0
2017-Nov-15 01:29N 70°22' E 031°07'0 0.0
2017-Nov-15 00:59N 70°22' E 031°07'0 0.0
2017-Nov-15 00:29N 70°22' E 031°07'0 0.0
2017-Nov-14 23:59N 70°22' E 031°07'0 0.0
2017-Nov-14 23:29N 70°22' E 031°07'0 0.0
2017-Nov-14 22:59N 70°22' E 031°07'0 0.0
2017-Nov-14 22:29N 70°22' E 031°07'0 0.0
2017-Nov-14 21:59N 70°22' E 031°07'0 0.0
2017-Nov-14 21:29N 70°22' E 031°07'0 0.0
2017-Nov-14 20:59N 70°22' E 031°07'0 0.0
2017-Nov-14 20:29N 70°22' E 031°07'0 0.0
2017-Nov-14 19:59N 70°22' E 031°07'0 0.0
2017-Nov-14 19:29N 70°22' E 031°07'0 0.0
2017-Nov-14 18:59N 70°22' E 031°07'0 0.0
2017-Nov-14 18:29N 70°22' E 031°07'0 0.0
2017-Nov-14 17:59N 70°22' E 031°07'0 0.0
2017-Nov-14 17:29N 70°22' E 031°07'0 0.0
2017-Nov-14 16:59N 70°22' E 031°07'0 0.0
2017-Nov-14 16:29N 70°22' E 031°07'0 0.2
2017-Nov-14 16:00N 70°23' E 031°07'0 0.1
2017-Nov-14 15:30N 70°23' E 031°07'3 5.9
2017-Nov-14 15:00N 70°25' E 031°13'3 6.3
2017-Nov-14 14:30N 70°26' E 031°22'3 5.3
2017-Nov-14 14:00N 70°29' E 031°21'3 5.3
2017-Nov-14 13:30N 70°26' E 031°22'1 1.7
2017-Nov-14 13:00N 70°25' E 031°23'1 1.1
2017-Nov-14 12:30N 70°25' E 031°23'0 0.7
2017-Nov-14 11:59N 70°24' E 031°23'4 7.9
2017-Nov-14 11:29N 70°28' E 031°22'0 0.3
2017-Nov-14 10:59N 70°28' E 031°21'0 0.5
2017-Nov-14 10:30N 70°29' E 031°21'3 5.5
2017-Nov-14 09:59N 70°26' E 031°24'1 1.7
2017-Nov-14 09:30N 70°25' E 031°24'1 1.4
2017-Nov-14 08:59N 70°26' E 031°24'1 1.3
2017-Nov-14 08:30N 70°26' E 031°24'1 1.5
2017-Nov-14 07:59N 70°27' E 031°24'1 1.4
2017-Nov-14 07:30N 70°28' E 031°23'1 1.4
2017-Nov-14 07:00N 70°29' E 031°23'1 1.5
2017-Nov-14 06:30N 70°29' E 031°22'1 1.2
2017-Nov-14 05:59N 70°30' E 031°20'3 5.8
2017-Nov-14 05:30N 70°27' E 031°16'4 8.4
2017-Nov-14 05:00N 70°24' E 031°08'2 3.2
2017-Nov-14 04:28N 70°22' E 031°07'0 0.0
2017-Nov-14 03:58N 70°22' E 031°07'0 0.0
2017-Nov-14 03:28N 70°22' E 031°07'0 0.0
2017-Nov-14 02:58N 70°22' E 031°07'0 0.0
2017-Nov-14 02:28N 70°22' E 031°07'0 0.0
2017-Nov-14 01:58N 70°22' E 031°07'0 0.0
2017-Nov-14 01:28N 70°22' E 031°07'0 0.0
2017-Nov-14 00:58N 70°22' E 031°07'0 0.0
2017-Nov-14 00:28N 70°22' E 031°07'0 0.0
2017-Nov-13 23:58N 70°22' E 031°07'0 0.0
2017-Nov-13 23:28N 70°22' E 031°07'0 0.0
2017-Nov-13 22:58N 70°22' E 031°07'0 0.0
2017-Nov-13 22:28N 70°22' E 031°07'0 0.0
2017-Nov-13 21:58N 70°22' E 031°07'0 0.0
2017-Nov-13 01:59N 70°22' E 031°07'0 0.0
2017-Nov-13 01:29N 70°22' E 031°07'0 0.0
2017-Nov-13 00:59N 70°22' E 031°07'0 0.0
2017-Nov-13 00:29N 70°22' E 031°07'0 0.0
2017-Nov-13 00:00N 70°22' E 031°07'0 0.0
2017-Nov-12 23:29N 70°22' E 031°07'0 0.0
2017-Nov-12 22:59N 70°22' E 031°07'0 0.0
2017-Nov-12 22:29N 70°22' E 031°07'0 0.0
2017-Nov-12 21:59N 70°22' E 031°07'0 0.0
2017-Nov-12 21:29N 70°22' E 031°07'0 0.0
2017-Nov-12 20:59N 70°22' E 031°07'0 0.0
2017-Nov-12 20:29N 70°22' E 031°07'0 0.0
2017-Nov-12 19:59N 70°22' E 031°07'0 0.0
2017-Nov-12 19:29N 70°22' E 031°07'0 0.0
2017-Nov-12 19:00N 70°22' E 031°07'0 0.0
2017-Nov-12 18:29N 70°22' E 031°07'0 0.0
2017-Nov-12 17:59N 70°22' E 031°07'0 0.0
2017-Nov-12 17:29N 70°22' E 031°07'0 0.0
2017-Nov-12 16:59N 70°22' E 031°07'0 0.0
2017-Nov-12 16:29N 70°22' E 031°07'0 0.0
2017-Nov-12 16:00N 70°22' E 031°07'1 1.9
2017-Nov-12 15:30N 70°23' E 031°09'4 8.2
2017-Nov-12 15:00N 70°24' E 031°21'3 5.2
2017-Nov-12 14:29N 70°27' E 031°22'3 5.7
2017-Nov-12 13:59N 70°30' E 031°20'3 5.8
2017-Nov-12 13:30N 70°27' E 031°19'2 4.0
2017-Nov-12 12:59N 70°26' E 031°14'3 6.8
2017-Nov-12 12:29N 70°23' E 031°07'1 1.7
2017-Nov-12 11:58N 70°22' E 031°07'0 0.0
2017-Nov-12 11:28N 70°22' E 031°07'0 0.0
2017-Nov-12 10:58N 70°22' E 031°07'0 0.0
2017-Nov-12 10:28N 70°22' E 031°07'0 0.0
2017-Nov-12 09:58N 70°22' E 031°07'0 0.0
2017-Nov-12 09:28N 70°22' E 031°07'0 0.0
2017-Nov-12 08:58N 70°22' E 031°07'0 0.0
2017-Nov-12 08:28N 70°22' E 031°07'0 0.0
2017-Nov-12 07:58N 70°22' E 031°07'0 0.0
2017-Nov-12 07:28N 70°22' E 031°07'0 0.0
2017-Nov-12 06:58N 70°22' E 031°07'0 0.0
2017-Nov-12 06:28N 70°22' E 031°07'0 0.0
2017-Nov-12 05:58N 70°22' E 031°07'0 0.0
2017-Nov-12 05:28N 70°22' E 031°07'0 0.0
2017-Nov-12 04:58N 70°22' E 031°07'0 0.0
2017-Nov-12 04:28N 70°22' E 031°07'0 0.0
2017-Nov-12 03:58N 70°22' E 031°07'0 0.0
2017-Nov-12 03:28N 70°22' E 031°07'0 0.0
2017-Nov-12 02:58N 70°22' E 031°07'0 0.0
2017-Nov-12 02:28N 70°22' E 031°07'0 0.0
2017-Nov-12 01:58N 70°22' E 031°07'0 0.0
2017-Nov-12 01:28N 70°22' E 031°07'0 0.0
2017-Nov-12 00:58N 70°22' E 031°07'0 0.0
2017-Nov-12 00:28N 70°22' E 031°07'0 0.0
2017-Nov-11 23:58N 70°22' E 031°07'0 0.0
2017-Nov-11 23:28N 70°22' E 031°07'0 0.0
2017-Nov-11 22:58N 70°22' E 031°07'0 0.0
2017-Nov-11 22:28N 70°22' E 031°07'0 0.0
2017-Nov-11 21:58N 70°22' E 031°07'0 0.0
2017-Nov-11 21:28N 70°22' E 031°07'0 0.0
2017-Nov-11 20:58N 70°22' E 031°07'0 0.0
2017-Nov-11 20:28N 70°22' E 031°07'0 0.0
2017-Nov-11 19:58N 70°22' E 031°07'0 0.0
2017-Nov-11 19:28N 70°22' E 031°07'0 0.0
2017-Nov-11 18:58N 70°22' E 031°07'0 0.0
2017-Nov-11 18:28N 70°22' E 031°07'0 0.0
2017-Nov-11 17:58N 70°22' E 031°07'0 0.0
2017-Nov-11 17:28N 70°22' E 031°07'0 0.0
2017-Nov-11 16:58N 70°22' E 031°07'0 0.0
2017-Nov-11 16:28N 70°22' E 031°07'0 0.0
2017-Nov-11 15:58N 70°22' E 031°07'0 0.0
2017-Nov-11 15:28N 70°22' E 031°07'0 0.0
2017-Nov-11 14:58N 70°22' E 031°07'0 0.0
2017-Nov-11 14:28N 70°22' E 031°07'0 0.0
2017-Nov-11 13:58N 70°22' E 031°07'0 0.0
2017-Nov-11 13:28N 70°22' E 031°07'0 0.0
2017-Nov-11 12:58N 70°22' E 031°07'0 0.0
2017-Nov-11 12:28N 70°22' E 031°07'0 0.0
2017-Nov-11 11:58N 70°22' E 031°07'0 0.0
2017-Nov-11 11:28N 70°22' E 031°07'0 0.0
2017-Nov-11 10:58N 70°22' E 031°07'0 0.0
2017-Nov-11 10:28N 70°22' E 031°07'0 0.0
2017-Nov-11 09:58N 70°22' E 031°07'0 0.0
2017-Nov-11 09:28N 70°22' E 031°07'0 0.0
2017-Nov-11 08:58N 70°22' E 031°07'0 0.0
2017-Nov-11 08:28N 70°22' E 031°07'0 0.0
2017-Nov-11 07:58N 70°22' E 031°07'0 0.0
2017-Nov-11 07:28N 70°22' E 031°07'0 0.0
2017-Nov-11 06:58N 70°22' E 031°07'0 0.0
2017-Nov-11 06:28N 70°22' E 031°07'0 0.0
2017-Nov-11 05:58N 70°22' E 031°07'0 0.0
2017-Nov-11 05:28N 70°22' E 031°07'0 0.0
2017-Nov-11 04:58N 70°22' E 031°07'0 0.0
2017-Nov-11 04:28N 70°22' E 031°07'0 0.0
2017-Nov-11 03:58N 70°22' E 031°07'0 0.0
2017-Nov-11 03:28N 70°22' E 031°07'0 0.0
2017-Nov-11 02:58N 70°22' E 031°07'0 0.0
2017-Nov-11 02:28N 70°22' E 031°07'0 0.0
2017-Nov-11 01:58N 70°22' E 031°07'0 0.0
2017-Nov-11 01:28N 70°22' E 031°07'0 0.0
2017-Nov-11 00:58N 70°22' E 031°07'0 0.0
2017-Nov-11 00:28N 70°22' E 031°07'0 0.0
2017-Nov-10 23:58N 70°22' E 031°07'0 0.0
2017-Nov-10 23:28N 70°22' E 031°07'0 0.0
2017-Nov-10 22:58N 70°22' E 031°07'0 0.0
2017-Nov-10 22:28N 70°22' E 031°07'0 0.0
2017-Nov-10 21:58N 70°22' E 031°07'0 0.0
2017-Nov-10 21:28N 70°22' E 031°07'0 0.0
2017-Nov-10 20:58N 70°22' E 031°07'0 0.0
2017-Nov-10 20:28N 70°22' E 031°07'0 0.0
2017-Nov-10 19:58N 70°22' E 031°07'0 0.0
2017-Nov-10 19:28N 70°22' E 031°07'0 0.0
2017-Nov-10 18:58N 70°22' E 031°07'0 0.0
2017-Nov-10 18:28N 70°22' E 031°07'0 0.0
2017-Nov-10 17:58N 70°22' E 031°07'0 0.0
2017-Nov-10 17:28N 70°22' E 031°07'0 0.0
2017-Nov-10 16:58N 70°22' E 031°07'0 0.0
2017-Nov-10 16:28N 70°22' E 031°07'0 0.0
2017-Nov-10 15:58N 70°22' E 031°07'0 0.0
2017-Nov-10 15:28N 70°22' E 031°07'0 0.0
2017-Nov-10 14:58N 70°22' E 031°07'0 0.0
2017-Nov-10 14:28N 70°22' E 031°07'0 0.0
2017-Nov-10 13:58N 70°22' E 031°07'0 0.0
2017-Nov-10 13:28N 70°22' E 031°07'0 0.0
2017-Nov-10 12:58N 70°22' E 031°07'0 0.0
2017-Nov-10 12:28N 70°22' E 031°07'0 0.0
2017-Nov-10 11:58N 70°22' E 031°07'0 0.0
2017-Nov-10 11:28N 70°22' E 031°07'0 0.0
2017-Nov-10 10:58N 70°22' E 031°07'0 0.0
2017-Nov-10 10:28N 70°22' E 031°07'0 0.0
2017-Nov-10 09:58N 70°22' E 031°07'0 0.0
2017-Nov-10 09:28N 70°22' E 031°07'0 0.0
2017-Nov-10 08:58N 70°22' E 031°07'0 0.0
2017-Nov-10 08:28N 70°22' E 031°07'0 0.0
2017-Nov-10 07:58N 70°22' E 031°07'0 0.0
2017-Nov-10 07:28N 70°22' E 031°07'0 0.2
2017-Nov-10 06:56N 70°22' E 031°07'0 0.5
2017-Nov-10 06:28N 70°23' E 031°07'0 0.0
2017-Nov-10 05:58N 70°23' E 031°07'0 0.0
2017-Nov-10 05:28N 70°23' E 031°07'0 0.0
2017-Nov-10 04:58N 70°23' E 031°07'0 0.0
2017-Nov-10 04:28N 70°23' E 031°07'0 0.0
2017-Nov-10 03:58N 70°23' E 031°07'0 0.0
2017-Nov-10 03:28N 70°23' E 031°07'0 0.0
2017-Nov-10 02:58N 70°23' E 031°07'0 0.0
2017-Nov-10 02:29N 70°23' E 031°07'0 0.0
2017-Nov-10 01:57N 70°23' E 031°07'0 0.0
2017-Nov-10 01:27N 70°23' E 031°07'0 0.0
2017-Nov-10 00:57N 70°23' E 031°07'0 0.0
2017-Nov-10 00:27N 70°23' E 031°07'0 0.0
2017-Nov-09 23:57N 70°23' E 031°07'0 0.0
2017-Nov-09 23:27N 70°23' E 031°07'0 0.0
2017-Nov-09 22:57N 70°23' E 031°07'0 0.0
2017-Nov-09 22:27N 70°23' E 031°07'0 0.0
2017-Nov-09 21:57N 70°23' E 031°07'0 0.0
2017-Nov-09 21:27N 70°23' E 031°07'0 0.0
2017-Nov-09 20:57N 70°23' E 031°07'0 0.0
2017-Nov-09 20:27N 70°23' E 031°07'0 0.0
2017-Nov-09 19:57N 70°23' E 031°07'0 0.0
2017-Nov-09 19:27N 70°23' E 031°07'0 0.0
2017-Nov-09 18:57N 70°23' E 031°07'0 0.0
2017-Nov-09 18:27N 70°23' E 031°07'0 0.0
2017-Nov-09 17:57N 70°23' E 031°07'0 0.0
2017-Nov-09 17:27N 70°23' E 031°07'0 0.0
2017-Nov-09 16:56N 70°23' E 031°07'1 2.6
2017-Nov-09 16:29N 70°24' E 031°07'4 8.4
2017-Nov-09 16:00N 70°27' E 031°16'1 2.1
2017-Nov-09 15:30N 70°27' E 031°18'1 1.1
2017-Nov-09 14:59N 70°27' E 031°16'1 1.4
2017-Nov-09 14:30N 70°27' E 031°15'1 1.5
2017-Nov-09 14:00N 70°26' E 031°13'1 1.3
2017-Nov-09 13:30N 70°26' E 031°12'3 6.1
2017-Nov-09 12:59N 70°28' E 031°19'1 2.4
2017-Nov-09 12:30N 70°29' E 031°21'1 1.1
2017-Nov-09 12:00N 70°29' E 031°20'1 1.2
2017-Nov-09 11:30N 70°29' E 031°18'0 0.9
2017-Nov-09 10:58N 70°28' E 031°17'1 1.4
2017-Nov-09 10:29N 70°28' E 031°15'1 1.1
2017-Nov-09 10:00N 70°28' E 031°14'0 0.9
2017-Nov-09 09:30N 70°28' E 031°13'1 1.0
2017-Nov-09 09:00N 70°28' E 031°13'1 1.4
2017-Nov-09 08:29N 70°29' E 031°14'1 1.1
2017-Nov-09 07:59N 70°29' E 031°15'1 1.4
2017-Nov-09 07:30N 70°30' E 031°16'1 1.4
2017-Nov-09 07:00N 70°30' E 031°17'0 1.0
2017-Nov-09 06:30N 70°31' E 031°17'0 0.5
2017-Nov-09 05:59N 70°31' E 031°17'4 7.7
2017-Nov-09 05:29N 70°27' E 031°12'4 8.1
2017-Nov-09 04:59N 70°23' E 031°07'1 2.1
2017-Nov-09 04:28N 70°22' E 031°07'0 0.0
2017-Nov-09 03:58N 70°22' E 031°07'0 0.0
2017-Nov-09 03:28N 70°22' E 031°07'0 0.0
2017-Nov-09 02:58N 70°22' E 031°07'0 0.0
2017-Nov-09 02:28N 70°22' E 031°07'0 0.0
2017-Nov-09 01:58N 70°22' E 031°07'0 0.0
2017-Nov-09 01:28N 70°22' E 031°07'0 0.0
2017-Nov-09 00:58N 70°22' E 031°07'0 0.0
2017-Nov-09 00:28N 70°22' E 031°07'0 0.0
2017-Nov-08 23:58N 70°22' E 031°07'0 0.0
2017-Nov-08 23:22N 70°22' E 031°07'0 0.0
2017-Nov-08 22:58N 70°22' E 031°07'0 0.0
2017-Nov-08 22:28N 70°22' E 031°07'0 0.0
2017-Nov-08 21:58N 70°22' E 031°07'0 0.0
2017-Nov-08 21:28N 70°22' E 031°07'0 0.0
2017-Nov-08 20:58N 70°22' E 031°07'0 0.0
2017-Nov-08 20:28N 70°22' E 031°07'0 0.0
2017-Nov-08 19:58N 70°22' E 031°07'0 0.0
2017-Nov-08 19:28N 70°22' E 031°07'0 0.0
2017-Nov-08 18:58N 70°22' E 031°07'0 0.0
2017-Nov-08 18:28N 70°22' E 031°07'0 0.0
2017-Nov-08 17:58N 70°22' E 031°07'0 0.0
2017-Nov-08 17:28N 70°22' E 031°07'0 0.0
2017-Nov-08 16:58N 70°22' E 031°07'0 0.0
2017-Nov-08 16:28N 70°22' E 031°07'0 0.0
2017-Nov-08 15:58N 70°22' E 031°07'0 0.0
2017-Nov-08 15:28N 70°22' E 031°07'3 5.9
2017-Nov-08 15:00N 70°25' E 031°08'3 6.8
2017-Nov-08 14:30N 70°28' E 031°13'3 6.3
2017-Nov-08 13:59N 70°31' E 031°16'2 5.2
2017-Nov-08 13:30N 70°29' E 031°14'1 2.1
2017-Nov-08 13:00N 70°28' E 031°15'2 3.1
2017-Nov-08 12:29N 70°28' E 031°20'3 5.8
2017-Nov-08 11:59N 70°26' E 031°14'3 6.0
2017-Nov-08 11:30N 70°24' E 031°08'2 3.3
2017-Nov-08 10:59N 70°22' E 031°07'0 0.0
2017-Nov-08 10:29N 70°22' E 031°07'0 0.0
2017-Nov-08 09:59N 70°22' E 031°07'0 0.0
2017-Nov-08 09:29N 70°22' E 031°07'0 0.0
2017-Nov-08 08:59N 70°22' E 031°07'0 0.0
2017-Nov-08 08:29N 70°22' E 031°07'0 0.0
2017-Nov-08 07:59N 70°22' E 031°07'0 0.0
2017-Nov-08 07:29N 70°22' E 031°07'0 0.0
2017-Nov-08 06:59N 70°22' E 031°07'0 0.0
2017-Nov-08 06:29N 70°22' E 031°07'0 0.0
2017-Nov-08 05:59N 70°22' E 031°07'0 0.0
2017-Nov-08 05:29N 70°22' E 031°07'0 0.0
2017-Nov-08 04:59N 70°22' E 031°07'0 0.0
2017-Nov-08 04:29N 70°22' E 031°07'0 0.0
2017-Nov-08 03:59N 70°22' E 031°07'0 0.0
2017-Nov-08 03:29N 70°22' E 031°07'0 0.0
2017-Nov-08 02:59N 70°22' E 031°07'0 0.0
2017-Nov-08 02:29N 70°22' E 031°07'0 0.0
2017-Nov-08 01:59N 70°22' E 031°07'0 0.0
2017-Nov-08 01:29N 70°22' E 031°07'0 0.0
2017-Nov-08 00:59N 70°22' E 031°07'0 0.0
2017-Nov-08 00:29N 70°22' E 031°07'0 0.0
2017-Nov-07 23:59N 70°22' E 031°07'0 0.0
2017-Nov-07 23:29N 70°22' E 031°07'0 0.0
2017-Nov-07 22:59N 70°22' E 031°07'0 0.0
2017-Nov-07 22:29N 70°22' E 031°07'0 0.0
2017-Nov-07 21:59N 70°22' E 031°07'0 0.0
2017-Nov-07 21:29N 70°22' E 031°07'0 0.0
2017-Nov-07 20:59N 70°22' E 031°07'0 0.0
2017-Nov-07 20:29N 70°22' E 031°07'0 0.0
2017-Nov-07 19:59N 70°22' E 031°07'0 0.0
2017-Nov-07 19:29N 70°22' E 031°07'0 0.0
2017-Nov-07 18:59N 70°22' E 031°07'0 0.0
2017-Nov-07 18:29N 70°22' E 031°07'0 0.0
2017-Nov-07 17:59N 70°22' E 031°07'0 0.0
2017-Nov-07 17:29N 70°22' E 031°07'0 0.0
2017-Nov-07 16:59N 70°22' E 031°07'0 0.0
2017-Nov-07 16:29N 70°22' E 031°07'0 0.0
2017-Nov-07 15:59N 70°22' E 031°07'0 0.0
2017-Nov-07 15:29N 70°22' E 031°07'0 0.0
2017-Nov-07 14:59N 70°22' E 031°07'0 0.0
2017-Nov-07 14:29N 70°22' E 031°07'0 0.0
2017-Nov-07 13:59N 70°22' E 031°07'0 0.0
2017-Nov-07 13:29N 70°22' E 031°07'0 0.0
2017-Nov-07 12:59N 70°22' E 031°07'0 0.0
2017-Nov-07 12:29N 70°22' E 031°07'0 0.0
2017-Nov-07 11:59N 70°22' E 031°07'0 0.0
2017-Nov-07 11:29N 70°22' E 031°07'0 0.0
2017-Nov-07 10:59N 70°22' E 031°07'0 0.0
2017-Nov-07 10:29N 70°22' E 031°07'0 0.0
2017-Nov-07 09:59N 70°22' E 031°07'0 0.0
2017-Nov-07 09:29N 70°22' E 031°07'0 0.0
2017-Nov-07 08:59N 70°22' E 031°07'0 0.0
2017-Nov-07 08:29N 70°22' E 031°07'0 0.0
2017-Nov-07 07:59N 70°22' E 031°07'0 0.0
2017-Nov-07 07:29N 70°22' E 031°07'0 0.0
2017-Nov-07 06:59N 70°22' E 031°07'0 0.0
2017-Nov-07 06:29N 70°22' E 031°07'0 0.0
2017-Nov-07 05:59N 70°22' E 031°07'0 0.0
2017-Nov-07 05:29N 70°22' E 031°07'0 0.0
2017-Nov-07 04:59N 70°22' E 031°07'0 0.0
2017-Nov-07 04:29N 70°22' E 031°07'0 0.0
2017-Nov-07 03:59N 70°22' E 031°07'0 0.0
2017-Nov-07 03:29N 70°22' E 031°07'0 0.0
2017-Nov-07 02:59N 70°22' E 031°07'0 0.0
2017-Nov-07 02:29N 70°22' E 031°07'0 0.0
2017-Nov-07 01:59N 70°22' E 031°07'0 0.0
2017-Nov-07 01:29N 70°22' E 031°07'0 0.0
2017-Nov-07 00:59N 70°22' E 031°07'0 0.0
2017-Nov-07 00:29N 70°22' E 031°07'0 0.0
2017-Nov-06 23:59N 70°22' E 031°07'0 0.0
2017-Nov-06 23:29N 70°22' E 031°07'0 0.0
2017-Nov-06 22:59N 70°22' E 031°07'0 0.0
2017-Nov-06 22:29N 70°22' E 031°07'0 0.0
2017-Nov-06 21:59N 70°22' E 031°07'0 0.0
2017-Nov-06 21:29N 70°22' E 031°07'0 0.0
2017-Nov-06 20:59N 70°22' E 031°07'0 0.0
2017-Nov-06 20:29N 70°22' E 031°07'  
Track history (hours):
 
Tides and Currents Weather Stations Pressure Air Temp Water Temp Dewpoint Dewpoint Depression Visibility Wind Speed Wind Dir Waves Ship Positions

Hanna B

Last reported at 2017-Nov-16 09:06 UTC. Time now 2017-Nov-24 16:53 UTC.
Position N 70°27' E 031°22'.
Warning: this ship's position is 8 days out of date.

Length 14 m.

Type: Fishing. MMSI: 257593500.

Date/timePositionNaut miles runAvg speedWind from/ knotsBaromVisibWave heightAir tempDewpointWater temp
2017-Nov-16 09:06N 70°27' E 031°22'0 1.1
2017-Nov-16 09:00N 70°27' E 031°22'0 1.0
2017-Nov-16 08:30N 70°27' E 031°21'0 0.6
2017-Nov-16 07:59N 70°26' E 031°20'0 1.0
2017-Nov-16 07:30N 70°26' E 031°22'0 1.0
2017-Nov-16 07:00N 70°26' E 031°22'1 1.1
2017-Nov-16 06:29N 70°26' E 031°24'1 1.1
2017-Nov-16 06:00N 70°26' E 031°25'3 5.0
2017-Nov-16 05:30N 70°25' E 031°18'4 7.9
2017-Nov-16 04:59N 70°24' E 031°07'1 2.3
2017-Nov-16 04:26N 70°22' E 031°07'0 0.0
2017-Nov-16 03:56N 70°22' E 031°07'0 0.0
2017-Nov-16 03:26N 70°22' E 031°07'0 0.0
2017-Nov-16 02:56N 70°22' E 031°07'0 0.0
2017-Nov-16 02:26N 70°22' E 031°07'0 0.0
2017-Nov-16 01:56N 70°22' E 031°07'0 0.0
2017-Nov-16 01:26N 70°22' E 031°07'0 0.0
2017-Nov-16 00:56N 70°22' E 031°07'0 0.0
2017-Nov-16 00:26N 70°22' E 031°07'0 0.0
2017-Nov-15 23:56N 70°22' E 031°07'0 0.0
2017-Nov-15 23:26N 70°22' E 031°07'0 0.0
2017-Nov-15 22:56N 70°22' E 031°07'0 0.0
2017-Nov-15 22:26N 70°22' E 031°07'0 0.0
2017-Nov-15 21:56N 70°22' E 031°07'0 0.0
2017-Nov-15 21:26N 70°22' E 031°07'0 0.0
2017-Nov-15 20:56N 70°22' E 031°07'0 0.0
2017-Nov-15 20:26N 70°22' E 031°07'0 0.0
2017-Nov-15 19:56N 70°22' E 031°07'0 0.0
2017-Nov-15 19:26N 70°22' E 031°07'0 0.0
2017-Nov-15 18:56N 70°22' E 031°07'0 0.0
2017-Nov-15 18:26N 70°22' E 031°07'0 0.0
2017-Nov-15 17:56N 70°22' E 031°07'0 0.0
2017-Nov-15 17:26N 70°22' E 031°07'0 0.0
2017-Nov-15 16:56N 70°22' E 031°07'0 0.0
2017-Nov-15 16:26N 70°22' E 031°07'0 0.0
2017-Nov-15 15:56N 70°22' E 031°07'0 0.0
2017-Nov-15 15:26N 70°22' E 031°07'0 0.0
2017-Nov-15 14:56N 70°22' E 031°07'0 0.0
2017-Nov-15 14:26N 70°22' E 031°07'0 0.0
2017-Nov-15 13:56N 70°22' E 031°07'0 0.0
2017-Nov-15 13:26N 70°22' E 031°07'0 0.0
2017-Nov-15 12:56N 70°22' E 031°07'0 0.0
2017-Nov-15 12:26N 70°22' E 031°07'0 0.0
2017-Nov-15 11:55N 70°22' E 031°07'0 0.4
2017-Nov-15 11:30N 70°23' E 031°07'3 6.4
2017-Nov-15 11:00N 70°25' E 031°13'4 8.4
2017-Nov-15 10:30N 70°27' E 031°23'2 4.0
2017-Nov-15 10:00N 70°29' E 031°20'3 5.1
2017-Nov-15 09:29N 70°26' E 031°20'2 3.3
2017-Nov-15 08:59N 70°26' E 031°25'1 1.5
2017-Nov-15 08:30N 70°26' E 031°23'1 1.1
2017-Nov-15 08:00N 70°26' E 031°23'1 1.2
2017-Nov-15 07:30N 70°27' E 031°23'1 1.2
2017-Nov-15 07:00N 70°27' E 031°22'1 1.3
2017-Nov-15 06:29N 70°28' E 031°22'1 1.2
2017-Nov-15 06:00N 70°29' E 031°21'3 5.5
2017-Nov-15 05:29N 70°26' E 031°16'4 8.3
2017-Nov-15 04:59N 70°24' E 031°07'1 2.3
2017-Nov-15 04:29N 70°22' E 031°07'0 0.0
2017-Nov-15 03:59N 70°22' E 031°07'0 0.0
2017-Nov-15 03:29N 70°22' E 031°07'0 0.0
2017-Nov-15 02:59N 70°22' E 031°07'0 0.0
2017-Nov-15 02:29N 70°22' E 031°07'0 0.0
2017-Nov-15 01:59N 70°22' E 031°07'0 0.0
2017-Nov-15 01:29N 70°22' E 031°07'0 0.0
2017-Nov-15 00:59N 70°22' E 031°07'0 0.0
2017-Nov-15 00:29N 70°22' E 031°07'0 0.0
2017-Nov-14 23:59N 70°22' E 031°07'0 0.0
2017-Nov-14 23:29N 70°22' E 031°07'0 0.0
2017-Nov-14 22:59N 70°22' E 031°07'0 0.0
2017-Nov-14 22:29N 70°22' E 031°07'0 0.0
2017-Nov-14 21:59N 70°22' E 031°07'0 0.0
2017-Nov-14 21:29N 70°22' E 031°07'0 0.0
2017-Nov-14 20:59N 70°22' E 031°07'0 0.0
2017-Nov-14 20:29N 70°22' E 031°07'0 0.0
2017-Nov-14 19:59N 70°22' E 031°07'0 0.0
2017-Nov-14 19:29N 70°22' E 031°07'0 0.0
2017-Nov-14 18:59N 70°22' E 031°07'0 0.0
2017-Nov-14 18:29N 70°22' E 031°07'0 0.0
2017-Nov-14 17:59N 70°22' E 031°07'0 0.0
2017-Nov-14 17:29N 70°22' E 031°07'0 0.0
2017-Nov-14 16:59N 70°22' E 031°07'0 0.0
2017-Nov-14 16:29N 70°22' E 031°07'0 0.2
2017-Nov-14 16:00N 70°23' E 031°07'0 0.1
2017-Nov-14 15:30N 70°23' E 031°07'3 5.9
2017-Nov-14 15:00N 70°25' E 031°13'3 6.3
2017-Nov-14 14:30N 70°26' E 031°22'3 5.3
2017-Nov-14 14:00N 70°29' E 031°21'3 5.3
2017-Nov-14 13:30N 70°26' E 031°22'1 1.7
2017-Nov-14 13:00N 70°25' E 031°23'1 1.1
2017-Nov-14 12:30N 70°25' E 031°23'0 0.7
2017-Nov-14 11:59N 70°24' E 031°23'4 7.9
2017-Nov-14 11:29N 70°28' E 031°22'0 0.3
2017-Nov-14 10:59N 70°28' E 031°21'0 0.5
2017-Nov-14 10:30N 70°29' E 031°21'3 5.5
2017-Nov-14 09:59N 70°26' E 031°24'1 1.7
2017-Nov-14 09:30N 70°25' E 031°24'1 1.4
2017-Nov-14 08:59N 70°26' E 031°24'1 1.3
2017-Nov-14 08:30N 70°26' E 031°24'1 1.5
2017-Nov-14 07:59N 70°27' E 031°24'1 1.4
2017-Nov-14 07:30N 70°28' E 031°23'1 1.4
2017-Nov-14 07:00N 70°29' E 031°23'1 1.5
2017-Nov-14 06:30N 70°29' E 031°22'1 1.2
2017-Nov-14 05:59N 70°30' E 031°20'3 5.8
2017-Nov-14 05:30N 70°27' E 031°16'4 8.4
2017-Nov-14 05:00N 70°24' E 031°08'2 3.2
2017-Nov-14 04:28N 70°22' E 031°07'0 0.0
2017-Nov-14 03:58N 70°22' E 031°07'0 0.0
2017-Nov-14 03:28N 70°22' E 031°07'0 0.0
2017-Nov-14 02:58N 70°22' E 031°07'0 0.0
2017-Nov-14 02:28N 70°22' E 031°07'0 0.0
2017-Nov-14 01:58N 70°22' E 031°07'0 0.0
2017-Nov-14 01:28N 70°22' E 031°07'0 0.0
2017-Nov-14 00:58N 70°22' E 031°07'0 0.0
2017-Nov-14 00:28N 70°22' E 031°07'0 0.0
2017-Nov-13 23:58N 70°22' E 031°07'0 0.0
2017-Nov-13 23:28N 70°22' E 031°07'0 0.0
2017-Nov-13 22:58N 70°22' E 031°07'0 0.0
2017-Nov-13 22:28N 70°22' E 031°07'0 0.0
2017-Nov-13 21:58N 70°22' E 031°07'0 0.0
2017-Nov-13 01:59N 70°22' E 031°07'0 0.0
2017-Nov-13 01:29N 70°22' E 031°07'0 0.0
2017-Nov-13 00:59N 70°22' E 031°07'0 0.0
2017-Nov-13 00:29N 70°22' E 031°07'0 0.0
2017-Nov-13 00:00N 70°22' E 031°07'0 0.0
2017-Nov-12 23:29N 70°22' E 031°07'0 0.0
2017-Nov-12 22:59N 70°22' E 031°07'0 0.0
2017-Nov-12 22:29N 70°22' E 031°07'0 0.0
2017-Nov-12 21:59N 70°22' E 031°07'0 0.0
2017-Nov-12 21:29N 70°22' E 031°07'0 0.0
2017-Nov-12 20:59N 70°22' E 031°07'0 0.0
2017-Nov-12 20:29N 70°22' E 031°07'0 0.0
2017-Nov-12 19:59N 70°22' E 031°07'0 0.0
2017-Nov-12 19:29N 70°22' E 031°07'0 0.0
2017-Nov-12 19:00N 70°22' E 031°07'0 0.0
2017-Nov-12 18:29N 70°22' E 031°07'0 0.0
2017-Nov-12 17:59N 70°22' E 031°07'0 0.0
2017-Nov-12 17:29N 70°22' E 031°07'0 0.0
2017-Nov-12 16:59N 70°22' E 031°07'0 0.0
2017-Nov-12 16:29N 70°22' E 031°07'0 0.0
2017-Nov-12 16:00N 70°22' E 031°07'1 1.9
2017-Nov-12 15:30N 70°23' E 031°09'4 8.2
2017-Nov-12 15:00N 70°24' E 031°21'3 5.2
2017-Nov-12 14:29N 70°27' E 031°22'3 5.7
2017-Nov-12 13:59N 70°30' E 031°20'3 5.8
2017-Nov-12 13:30N 70°27' E 031°19'2 4.0
2017-Nov-12 12:59N 70°26' E 031°14'3 6.8
2017-Nov-12 12:29N 70°23' E 031°07'1 1.7
2017-Nov-12 11:58N 70°22' E 031°07'0 0.0
2017-Nov-12 11:28N 70°22' E 031°07'0 0.0
2017-Nov-12 10:58N 70°22' E 031°07'0 0.0
2017-Nov-12 10:28N 70°22' E 031°07'0 0.0
2017-Nov-12 09:58N 70°22' E 031°07'0 0.0
2017-Nov-12 09:28N 70°22' E 031°07'0 0.0
2017-Nov-12 08:58N 70°22' E 031°07'0 0.0
2017-Nov-12 08:28N 70°22' E 031°07'0 0.0
2017-Nov-12 07:58N 70°22' E 031°07'0 0.0
2017-Nov-12 07:28N 70°22' E 031°07'0 0.0
2017-Nov-12 06:58N 70°22' E 031°07'0 0.0
2017-Nov-12 06:28N 70°22' E 031°07'0 0.0
2017-Nov-12 05:58N 70°22' E 031°07'0 0.0
2017-Nov-12 05:28N 70°22' E 031°07'0 0.0
2017-Nov-12 04:58N 70°22' E 031°07'0 0.0
2017-Nov-12 04:28N 70°22' E 031°07'0 0.0
2017-Nov-12 03:58N 70°22' E 031°07'0 0.0
2017-Nov-12 03:28N 70°22' E 031°07'0 0.0
2017-Nov-12 02:58N 70°22' E 031°07'0 0.0
2017-Nov-12 02:28N 70°22' E 031°07'0 0.0
2017-Nov-12 01:58N 70°22' E 031°07'0 0.0
2017-Nov-12 01:28N 70°22' E 031°07'0 0.0
2017-Nov-12 00:58N 70°22' E 031°07'0 0.0
2017-Nov-12 00:28N 70°22' E 031°07'0 0.0
2017-Nov-11 23:58N 70°22' E 031°07'0 0.0
2017-Nov-11 23:28N 70°22' E 031°07'0 0.0
2017-Nov-11 22:58N 70°22' E 031°07'0 0.0
2017-Nov-11 22:28N 70°22' E 031°07'0 0.0
2017-Nov-11 21:58N 70°22' E 031°07'0 0.0
2017-Nov-11 21:28N 70°22' E 031°07'0 0.0
2017-Nov-11 20:58N 70°22' E 031°07'0 0.0
2017-Nov-11 20:28N 70°22' E 031°07'0 0.0
2017-Nov-11 19:58N 70°22' E 031°07'0 0.0
2017-Nov-11 19:28N 70°22' E 031°07'0 0.0
2017-Nov-11 18:58N 70°22' E 031°07'0 0.0
2017-Nov-11 18:28N 70°22' E 031°07'0 0.0
2017-Nov-11 17:58N 70°22' E 031°07'0 0.0
2017-Nov-11 17:28N 70°22' E 031°07'0 0.0
2017-Nov-11 16:58N 70°22' E 031°07'0 0.0
2017-Nov-11 16:28N 70°22' E 031°07'0 0.0
2017-Nov-11 15:58N 70°22' E 031°07'0 0.0
2017-Nov-11 15:28N 70°22' E 031°07'0 0.0
2017-Nov-11 14:58N 70°22' E 031°07'0 0.0
2017-Nov-11 14:28N 70°22' E 031°07'0 0.0
2017-Nov-11 13:58N 70°22' E 031°07'0 0.0
2017-Nov-11 13:28N 70°22' E 031°07'0 0.0
2017-Nov-11 12:58N 70°22' E 031°07'0 0.0
2017-Nov-11 12:28N 70°22' E 031°07'0 0.0
2017-Nov-11 11:58N 70°22' E 031°07'0 0.0
2017-Nov-11 11:28N 70°22' E 031°07'0 0.0
2017-Nov-11 10:58N 70°22' E 031°07'0 0.0
2017-Nov-11 10:28N 70°22' E 031°07'0 0.0
2017-Nov-11 09:58N 70°22' E 031°07'0 0.0
2017-Nov-11 09:28N 70°22' E 031°07'0 0.0
2017-Nov-11 08:58N 70°22' E 031°07'0 0.0
2017-Nov-11 08:28N 70°22' E 031°07'0 0.0
2017-Nov-11 07:58N 70°22' E 031°07'0 0.0
2017-Nov-11 07:28N 70°22' E 031°07'0 0.0
2017-Nov-11 06:58N 70°22' E 031°07'0 0.0
2017-Nov-11 06:28N 70°22' E 031°07'0 0.0
2017-Nov-11 05:58N 70°22' E 031°07'0 0.0
2017-Nov-11 05:28N 70°22' E 031°07'0 0.0
2017-Nov-11 04:58N 70°22' E 031°07'0 0.0
2017-Nov-11 04:28N 70°22' E 031°07'0 0.0
2017-Nov-11 03:58N 70°22' E 031°07'0 0.0
2017-Nov-11 03:28N 70°22' E 031°07'0 0.0
2017-Nov-11 02:58N 70°22' E 031°07'0 0.0
2017-Nov-11 02:28N 70°22' E 031°07'0 0.0
2017-Nov-11 01:58N 70°22' E 031°07'0 0.0
2017-Nov-11 01:28N 70°22' E 031°07'0 0.0
2017-Nov-11 00:58N 70°22' E 031°07'0 0.0
2017-Nov-11 00:28N 70°22' E 031°07'0 0.0
2017-Nov-10 23:58N 70°22' E 031°07'0 0.0
2017-Nov-10 23:28N 70°22' E 031°07'0 0.0
2017-Nov-10 22:58N 70°22' E 031°07'0 0.0
2017-Nov-10 22:28N 70°22' E 031°07'0 0.0
2017-Nov-10 21:58N 70°22' E 031°07'0 0.0
2017-Nov-10 21:28N 70°22' E 031°07'0 0.0
2017-Nov-10 20:58N 70°22' E 031°07'0 0.0
2017-Nov-10 20:28N 70°22' E 031°07'0 0.0
2017-Nov-10 19:58N 70°22' E 031°07'0 0.0
2017-Nov-10 19:28N 70°22' E 031°07'0 0.0
2017-Nov-10 18:58N 70°22' E 031°07'0 0.0
2017-Nov-10 18:28N 70°22' E 031°07'0 0.0
2017-Nov-10 17:58N 70°22' E 031°07'0 0.0
2017-Nov-10 17:28N 70°22' E 031°07'0 0.0
2017-Nov-10 16:58N 70°22' E 031°07'0 0.0
2017-Nov-10 16:28N 70°22' E 031°07'0 0.0
2017-Nov-10 15:58N 70°22' E 031°07'0 0.0
2017-Nov-10 15:28N 70°22' E 031°07'0 0.0
2017-Nov-10 14:58N 70°22' E 031°07'0 0.0
2017-Nov-10 14:28N 70°22' E 031°07'0 0.0
2017-Nov-10 13:58N 70°22' E 031°07'0 0.0
2017-Nov-10 13:28N 70°22' E 031°07'0 0.0
2017-Nov-10 12:58N 70°22' E 031°07'0 0.0
2017-Nov-10 12:28N 70°22' E 031°07'0 0.0
2017-Nov-10 11:58N 70°22' E 031°07'0 0.0
2017-Nov-10 11:28N 70°22' E 031°07'0 0.0
2017-Nov-10 10:58N 70°22' E 031°07'0 0.0
2017-Nov-10 10:28N 70°22' E 031°07'0 0.0
2017-Nov-10 09:58N 70°22' E 031°07'0 0.0
2017-Nov-10 09:28N 70°22' E 031°07'0 0.0
2017-Nov-10 08:58N 70°22' E 031°07'0 0.0
2017-Nov-10 08:28N 70°22' E 031°07'0 0.0
2017-Nov-10 07:58N 70°22' E 031°07'0 0.0
2017-Nov-10 07:28N 70°22' E 031°07'0 0.2
2017-Nov-10 06:56N 70°22' E 031°07'0 0.5
2017-Nov-10 06:28N 70°23' E 031°07'0 0.0
2017-Nov-10 05:58N 70°23' E 031°07'0 0.0
2017-Nov-10 05:28N 70°23' E 031°07'0 0.0
2017-Nov-10 04:58N 70°23' E 031°07'0 0.0
2017-Nov-10 04:28N 70°23' E 031°07'0 0.0
2017-Nov-10 03:58N 70°23' E 031°07'0 0.0
2017-Nov-10 03:28N 70°23' E 031°07'0 0.0
2017-Nov-10 02:58N 70°23' E 031°07'0 0.0
2017-Nov-10 02:29N 70°23' E 031°07'0 0.0
2017-Nov-10 01:57N 70°23' E 031°07'0 0.0
2017-Nov-10 01:27N 70°23' E 031°07'0 0.0
2017-Nov-10 00:57N 70°23' E 031°07'0 0.0
2017-Nov-10 00:27N 70°23' E 031°07'0 0.0
2017-Nov-09 23:57N 70°23' E 031°07'0 0.0
2017-Nov-09 23:27N 70°23' E 031°07'0 0.0
2017-Nov-09 22:57N 70°23' E 031°07'0 0.0
2017-Nov-09 22:27N 70°23' E 031°07'0 0.0
2017-Nov-09 21:57N 70°23' E 031°07'0 0.0
2017-Nov-09 21:27N 70°23' E 031°07'0 0.0
2017-Nov-09 20:57N 70°23' E 031°07'0 0.0
2017-Nov-09 20:27N 70°23' E 031°07'0 0.0
2017-Nov-09 19:57N 70°23' E 031°07'0 0.0
2017-Nov-09 19:27N 70°23' E 031°07'0 0.0
2017-Nov-09 18:57N 70°23' E 031°07'0 0.0
2017-Nov-09 18:27N 70°23' E 031°07'0 0.0
2017-Nov-09 17:57N 70°23' E 031°07'0 0.0
2017-Nov-09 17:27N 70°23' E 031°07'0 0.0
2017-Nov-09 16:56N 70°23' E 031°07'1 2.6
2017-Nov-09 16:29N 70°24' E 031°07'4 8.4
2017-Nov-09 16:00N 70°27' E 031°16'1 2.1
2017-Nov-09 15:30N 70°27' E 031°18'1 1.1
2017-Nov-09 14:59N 70°27' E 031°16'1 1.4
2017-Nov-09 14:30N 70°27' E 031°15'1 1.5
2017-Nov-09 14:00N 70°26' E 031°13'1 1.3
2017-Nov-09 13:30N 70°26' E 031°12'3 6.1
2017-Nov-09 12:59N 70°28' E 031°19'1 2.4
2017-Nov-09 12:30N 70°29' E 031°21'1 1.1
2017-Nov-09 12:00N 70°29' E 031°20'1 1.2
2017-Nov-09 11:30N 70°29' E 031°18'0 0.9
2017-Nov-09 10:58N 70°28' E 031°17'1 1.4
2017-Nov-09 10:29N 70°28' E 031°15'1 1.1
2017-Nov-09 10:00N 70°28' E 031°14'0 0.9
2017-Nov-09 09:30N 70°28' E 031°13'1 1.0
2017-Nov-09 09:00N 70°28' E 031°13'1 1.4
2017-Nov-09 08:29N 70°29' E 031°14'1 1.1
2017-Nov-09 07:59N 70°29' E 031°15'1 1.4
2017-Nov-09 07:30N 70°30' E 031°16'1 1.4
2017-Nov-09 07:00N 70°30' E 031°17'0 1.0
2017-Nov-09 06:30N 70°31' E 031°17'0 0.5
2017-Nov-09 05:59N 70°31' E 031°17'4 7.7
2017-Nov-09 05:29N 70°27' E 031°12'4 8.1
2017-Nov-09 04:59N 70°23' E 031°07'1 2.1
2017-Nov-09 04:28N 70°22' E 031°07'0 0.0
2017-Nov-09 03:58N 70°22' E 031°07'0 0.0
2017-Nov-09 03:28N 70°22' E 031°07'0 0.0
2017-Nov-09 02:58N 70°22' E 031°07'0 0.0
2017-Nov-09 02:28N 70°22' E 031°07'0 0.0
2017-Nov-09 01:58N 70°22' E 031°07'0 0.0
2017-Nov-09 01:28N 70°22' E 031°07'0 0.0
2017-Nov-09 00:58N 70°22' E 031°07'0 0.0
2017-Nov-09 00:28N 70°22' E 031°07'0 0.0
2017-Nov-08 23:58N 70°22' E 031°07'0 0.0
2017-Nov-08 23:22N 70°22' E 031°07'0 0.0
2017-Nov-08 22:58N 70°22' E 031°07'0 0.0
2017-Nov-08 22:28N 70°22' E 031°07'0 0.0
2017-Nov-08 21:58N 70°22' E 031°07'0 0.0
2017-Nov-08 21:28N 70°22' E 031°07'0 0.0
2017-Nov-08 20:58N 70°22' E 031°07'0 0.0
2017-Nov-08 20:28N 70°22' E 031°07'0 0.0
2017-Nov-08 19:58N 70°22' E 031°07'0 0.0
2017-Nov-08 19:28N 70°22' E 031°07'0 0.0
2017-Nov-08 18:58N 70°22' E 031°07'0 0.0
2017-Nov-08 18:28N 70°22' E 031°07'0 0.0
2017-Nov-08 17:58N 70°22' E 031°07'0 0.0
2017-Nov-08 17:28N 70°22' E 031°07'0 0.0
2017-Nov-08 16:58N 70°22' E 031°07'0 0.0
2017-Nov-08 16:28N 70°22' E 031°07'0 0.0
2017-Nov-08 15:58N 70°22' E 031°07'0 0.0
2017-Nov-08 15:28N 70°22' E 031°07'3 5.9
2017-Nov-08 15:00N 70°25' E 031°08'3 6.8
2017-Nov-08 14:30N 70°28' E 031°13'3 6.3
2017-Nov-08 13:59N 70°31' E 031°16'2 5.2
2017-Nov-08 13:30N 70°29' E 031°14'1 2.1
2017-Nov-08 13:00N 70°28' E 031°15'2 3.1
2017-Nov-08 12:29N 70°28' E 031°20'3 5.8
2017-Nov-08 11:59N 70°26' E 031°14'3 6.0
2017-Nov-08 11:30N 70°24' E 031°08'2 3.3
2017-Nov-08 10:59N 70°22' E 031°07'0 0.0
2017-Nov-08 10:29N 70°22' E 031°07'0 0.0
2017-Nov-08 09:59N 70°22' E 031°07'0 0.0
2017-Nov-08 09:29N 70°22' E 031°07'0 0.0
2017-Nov-08 08:59N 70°22' E 031°07'0 0.0
2017-Nov-08 08:29N 70°22' E 031°07'0 0.0
2017-Nov-08 07:59N 70°22' E 031°07'0 0.0
2017-Nov-08 07:29N 70°22' E 031°07'0 0.0
2017-Nov-08 06:59N 70°22' E 031°07'0 0.0
2017-Nov-08 06:29N 70°22' E 031°07'0 0.0
2017-Nov-08 05:59N 70°22' E 031°07'0 0.0
2017-Nov-08 05:29N 70°22' E 031°07'0 0.0
2017-Nov-08 04:59N 70°22' E 031°07'0 0.0
2017-Nov-08 04:29N 70°22' E 031°07'0 0.0
2017-Nov-08 03:59N 70°22' E 031°07'0 0.0
2017-Nov-08 03:29N 70°22' E 031°07'0 0.0
2017-Nov-08 02:59N 70°22' E 031°07'0 0.0
2017-Nov-08 02:29N 70°22' E 031°07'0 0.0
2017-Nov-08 01:59N 70°22' E 031°07'0 0.0
2017-Nov-08 01:29N 70°22' E 031°07'0 0.0
2017-Nov-08 00:59N 70°22' E 031°07'0 0.0
2017-Nov-08 00:29N 70°22' E 031°07'0 0.0
2017-Nov-07 23:59N 70°22' E 031°07'0 0.0
2017-Nov-07 23:29N 70°22' E 031°07'0 0.0
2017-Nov-07 22:59N 70°22' E 031°07'0 0.0
2017-Nov-07 22:29N 70°22' E 031°07'0 0.0
2017-Nov-07 21:59N 70°22' E 031°07'0 0.0
2017-Nov-07 21:29N 70°22' E 031°07'0 0.0
2017-Nov-07 20:59N 70°22' E 031°07'0 0.0
2017-Nov-07 20:29N 70°22' E 031°07'0 0.0
2017-Nov-07 19:59N 70°22' E 031°07'0 0.0
2017-Nov-07 19:29N 70°22' E 031°07'0 0.0
2017-Nov-07 18:59N 70°22' E 031°07'0 0.0
2017-Nov-07 18:29N 70°22' E 031°07'0 0.0
2017-Nov-07 17:59N 70°22' E 031°07'0 0.0
2017-Nov-07 17:29N 70°22' E 031°07'0 0.0
2017-Nov-07 16:59N 70°22' E 031°07'0 0.0
2017-Nov-07 16:29N 70°22' E 031°07'0 0.0
2017-Nov-07 15:59N 70°22' E 031°07'0 0.0
2017-Nov-07 15:29N 70°22' E 031°07'0 0.0
2017-Nov-07 14:59N 70°22' E 031°07'0 0.0
2017-Nov-07 14:29N 70°22' E 031°07'0 0.0
2017-Nov-07 13:59N 70°22' E 031°07'0 0.0
2017-Nov-07 13:29N 70°22' E 031°07'0 0.0
2017-Nov-07 12:59N 70°22' E 031°07'0 0.0
2017-Nov-07 12:29N 70°22' E 031°07'0 0.0
2017-Nov-07 11:59N 70°22' E 031°07'0 0.0
2017-Nov-07 11:29N 70°22' E 031°07'0 0.0
2017-Nov-07 10:59N 70°22' E 031°07'0 0.0
2017-Nov-07 10:29N 70°22' E 031°07'0 0.0
2017-Nov-07 09:59N 70°22' E 031°07'0 0.0
2017-Nov-07 09:29N 70°22' E 031°07'0 0.0
2017-Nov-07 08:59N 70°22' E 031°07'0 0.0
2017-Nov-07 08:29N 70°22' E 031°07'0 0.0
2017-Nov-07 07:59N 70°22' E 031°07'0 0.0
2017-Nov-07 07:29N 70°22' E 031°07'0 0.0
2017-Nov-07 06:59N 70°22' E 031°07'0 0.0
2017-Nov-07 06:29N 70°22' E 031°07'0 0.0
2017-Nov-07 05:59N 70°22' E 031°07'0 0.0
2017-Nov-07 05:29N 70°22' E 031°07'0 0.0
2017-Nov-07 04:59N 70°22' E 031°07'0 0.0
2017-Nov-07 04:29N 70°22' E 031°07'0 0.0
2017-Nov-07 03:59N 70°22' E 031°07'0 0.0
2017-Nov-07 03:29N 70°22' E 031°07'0 0.0
2017-Nov-07 02:59N 70°22' E 031°07'0 0.0
2017-Nov-07 02:29N 70°22' E 031°07'0 0.0
2017-Nov-07 01:59N 70°22' E 031°07'0 0.0
2017-Nov-07 01:29N 70°22' E 031°07'0 0.0
2017-Nov-07 00:59N 70°22' E 031°07'0 0.0
2017-Nov-07 00:29N 70°22' E 031°07'0 0.0
2017-Nov-06 23:59N 70°22' E 031°07'0 0.0
2017-Nov-06 23:29N 70°22' E 031°07'0 0.0
2017-Nov-06 22:59N 70°22' E 031°07'0 0.0
2017-Nov-06 22:29N 70°22' E 031°07'0 0.0
2017-Nov-06 21:59N 70°22' E 031°07'0 0.0
2017-Nov-06 21:29N 70°22' E 031°07'0 0.0
2017-Nov-06 20:59N 70°22' E 031°07'0 0.0
2017-Nov-06 20:29N 70°22' E 031°07'  

Dump ship's entire track history